Pittsville, Maryland
Current Conditions -  °F | °C
As of 3:54 AM on Wednesday 22 Oct 2014 (Local Time) from KSBY Reporting Station
Haze Haze  
Wind Chill: 57°   Ceiling: 500
Heat Index: 57°   Visibility: 4mi
Dew Point: 54°   Wind: 0mph
Humidity: 89%   Direction: NA
Pressure: 29.8"   Gusts: NA
Location:  38.4°N, 75.41°W
Report Text: KSBY 220754Z AUTO 00000KT 4SM BR OVC005 14/12 A2980 RMK AO2 SLP092 T01390122
Loading
Personal Weather Stations






























Interactive Weather Map
Tropical Storm Tracking
New forecast layout! Learn more

10-Day Weather Forecast

Advertisements
Track Severe Weather on mobile